Latest Coastal Weather Observations for Gladstone

IDQ60701

Issued at 3:22 pm EST Sunday 31 July 2016 (issued every 10 minutes, with the page automatically refreshed every 10 minutes)

About coastal observations | Map of coastal stations | Coastal observations for QLD | Marine services | Other Formats
Station Details ID: 039123 Name: GLADSTONE RADAR Lat: -23.86 Lon: 151.26 Height: 74.5 m
Data from the previous 72 hours. | See also: Recent months at Gladstone
Date/Time
EST
Temp
°C
Wind Pressure Rain since
9am
mm
Weather Cloud Vis
km
Sea
Height
m
Swell
Dir  Spd
kts
Gust
kts
hPa Trend Height
m
Period
s
Dir
31/03:00pm 23.3 ENE 7 11 1016.8 - 0.0 - - - - - - -
31/02:30pm 23.5 ENE 8 12 1016.9 - 0.0 - - - - - - -
31/02:00pm 23.5 ENE 9 12 1017.2 - 0.0 - - - - - - -
31/01:30pm 24.0 ENE 8 11 1017.4 - 0.0 - - - - - - -
31/01:00pm 24.0 ENE 8 11 1017.9 - 0.0 - - - - - - -
31/12:30pm 23.8 ENE 8 11 1018.3 - 0.0 - - - - - - -
31/12:00pm 24.1 E 6 10 1018.8 - 0.0 - - - - - - -
31/11:30am 23.7 ESE 3 9 1019.4 - 0.0 - - - - - - -
31/11:00am 22.7 SE 3 8 1019.9 - 0.0 - - - - - - -
31/10:30am 22.7 E 5 8 1020.2 - 0.0 - - - - - - -
31/10:00am 21.4 SE 2 6 1020.3 - 0.0 - - - - - - -
31/09:30am 20.2 SE 2 5 1020.3 - 0.0 - - - - - - -
31/09:00am 18.6 SSW 1 4 1020.1 - 0.0 - - - - - - -
31/08:30am 17.2 SW 2 6 1019.9 - 0.0 - - - - - - -
31/08:00am 15.7 SW 5 8 1019.6 - 0.0 - - - - - - -
31/07:30am 14.6 SW 7 8 1019.3 - 0.0 - - - - - - -
31/07:00am 13.6 SW 6 7 1019.1 - 0.0 - - - - - - -
31/06:30am 14.2 SW 3 6 1018.8 - 0.0 - - - - - - -
31/06:00am 15.2 SSW 6 7 1018.4 - 0.0 - - - - - - -
31/05:30am 15.5 SSW 6 7 1018.2 - 0.0 - - - - - - -
31/05:00am 15.4 SSW 6 7 1018.1 - 0.0 - - - - - - -
31/04:30am 16.0 SSW 6 8 1018.1 - 0.0 - - - - - - -
31/04:00am 16.4 S 7 9 1018.1 - 0.0 - - - - - - -
31/03:30am 16.5 S 8 9 1018.3 - 0.0 - - - - - - -
31/03:00am 16.7 S 8 9 1018.4 - 0.0 - - - - - - -
31/02:30am 16.7 SSW 7 9 1018.7 - 0.0 - - - - - - -
31/02:00am 16.6 SSW 7 9 1018.8 - 0.0 - - - - - - -
31/01:30am 16.9 SSW 7 9 1019.1 - 0.0 - - - - - - -
31/01:00am 17.2 SSW 6 8 1019.4 - 0.0 - - - - - - -
31/12:30am 17.4 SSW 7 8 1019.7 - 0.0 - - - - - - -
31/12:00am 17.4 SSW 6 8 1019.7 - 0.0 - - - - - - -
 
Date/Time
EST
Temp
°C
Wind Pressure Rain since
9am
mm
Weather Cloud Vis
km
Sea
Height
m
Swell
Dir  Spd
kts
Gust
kts
hPa Trend Height
m
Period
s
Dir
30/11:30pm 17.5 S 8 10 1019.9 - 0.0 - - - - - - -
30/11:00pm 17.6 S 7 9 1019.8 - 0.0 - - - - - - -
30/10:30pm 17.5 S 8 10 1020.0 - 0.0 - - - - - - -
30/10:00pm 17.3 S 7 9 1019.9 - 0.0 - - - - - - -
30/09:30pm 17.5 SSE 6 8 1019.8 - 0.0 - - - - - - -
30/09:00pm 17.9 ESE 6 7 1019.7 - 0.0 - - - - - - -
30/08:30pm 18.0 ESE 6 8 1019.7 - 0.0 - - - - - - -
30/08:00pm 18.0 E 7 9 1019.4 - 0.0 - - - - - - -
30/07:30pm 18.0 E 8 9 1019.2 - 0.0 - - - - - - -
30/07:00pm 18.0 ENE 7 8 1018.9 - 0.0 - - - - - - -
30/06:30pm 18.2 ENE 8 10 1018.5 - 0.0 - - - - - - -
30/06:00pm 18.5 ENE 9 12 1018.2 - 0.0 - - - - - - -
30/05:30pm 18.7 E 9 11 1018.0 - 0.0 - - - - - - -
30/05:00pm 19.3 ENE 7 12 1017.9 - 0.0 - - - - - - -
30/04:30pm 20.5 ENE 10 13 1017.7 - 0.0 - - - - - - -
30/04:00pm 21.2 ENE 8 11 1017.6 - 0.0 - - - - - - -
30/03:30pm 22.1 ENE 7 12 1017.6 - 0.0 - - - - - - -
30/03:00pm 22.7 ENE 9 14 1017.5 - 0.0 - - - - - - -
30/02:30pm 23.2 ENE 9 14 1017.5 - 0.0 - - - - - - -
30/02:00pm 24.0 ENE 7 11 1017.6 - 0.0 - - - - - - -
30/01:30pm 24.1 NE 7 10 1017.8 - 0.0 - - - - - - -
30/01:00pm 23.8 ENE 9 13 1018.1 - 0.0 - - - - - - -
30/12:30pm 24.2 ENE 8 12 1018.6 - 0.0 - - - - - - -
30/12:00pm 24.1 NE 5 8 1019.4 - 0.0 - - - - - - -
30/11:30am 23.7 ENE 5 8 1020.0 - 0.0 - - - - - - -
30/11:00am 22.8 SE 5 10 1020.5 - 0.0 - - - - - - -
30/10:30am 21.9 ESE 2 6 1020.7 - 0.0 - - - - - - -
30/10:00am 20.2 SSW 1 5 1020.9 - 0.0 - - - - - - -
30/09:30am 19.0 SSW 1 4 1021.2 - 0.0 - - - - - - -
30/09:00am 17.8 SSW 3 7 1021.1 - 0.0 - - - - - - -
30/08:30am 16.5 WSW 2 6 1020.6 - 0.0 - - - - - - -
30/08:00am 14.6 SW 4 8 1020.2 - 0.0 - - - - - - -
30/07:30am 14.0 SW 6 10 1020.1 - 0.0 - - - - - - -
30/07:00am 12.6 WSW 7 11 1020.0 - 0.0 - - - - - - -
30/06:30am 13.1 WSW 5 7 1019.7 - 0.0 - - - - - - -
30/06:00am 13.7 SW 4 7 1019.3 - 0.0 - - - - - - -
30/05:30am 14.8 SSW 5 7 1018.9 - 0.0 - - - - - - -
30/05:00am 14.3 SW 7 10 1018.9 - 0.0 - - - - - - -
30/04:30am 14.4 SW 6 8 1018.8 - 0.0 - - - - - - -
30/04:00am 14.7 SW 6 7 1018.8 - 0.0 - - - - - - -
30/03:30am 16.1 SW 5 7 1018.9 - 0.0 - - - - - - -
30/03:00am 16.7 SSW 7 8 1019.1 - 0.0 - - - - - - -
30/02:30am 16.4 SSW 7 9 1019.3 - 0.0 - - - - - - -
30/02:00am 16.8 SSW 8 9 1019.5 - 0.0 - - - - - - -
30/01:30am 16.6 SSW 7 8 1019.9 - 0.0 - - - - - - -
30/01:00am 17.3 S 8 10 1020.3 - 0.0 - - - - - - -
30/12:30am 17.5 S 7 9 1020.5 - 0.0 - - - - - - -
30/12:00am 17.3 SSW 8 9 1020.7 - 0.0 - - - - - - -
 
Date/Time
EST
Temp
°C
Wind Pressure Rain since
9am
mm
Weather Cloud Vis
km
Sea
Height
m
Swell
Dir  Spd
kts
Gust
kts
hPa Trend Height
m
Period
s
Dir
29/11:30pm 17.5 S 7 9 1020.9 - 0.0 - - - - - - -
29/11:00pm 17.4 S 7 9 1021.0 - 0.0 - - - - - - -
29/10:30pm 17.5 S 7 9 1021.1 - 0.0 - - - - - - -
29/10:00pm 17.3 S 6 8 1021.2 - 0.0 - - - - - - -
29/09:30pm 17.6 SSE 6 8 1021.1 - 0.0 - - - - - - -
29/09:00pm 17.8 SE 6 9 1020.9 - 0.0 - - - - - - -
29/08:30pm 17.9 E 7 10 1020.7 - 0.0 - - - - - - -
29/08:00pm 18.1 E 8 11 1020.6 - 0.0 - - - - - - -
29/07:30pm 18.1 E 8 10 1020.4 - 0.0 - - - - - - -
29/07:00pm 18.0 E 8 10 1020.1 - 0.0 - - - - - - -
29/06:30pm 18.1 E 7 11 1019.8 - 0.0 - - - - - - -
29/06:00pm 18.4 E 9 12 1019.5 - 0.0 - - - - - - -
29/05:30pm 18.8 E 9 13 1019.4 - 0.0 - - - - - - -
29/05:00pm 19.4 E 9 14 1019.2 - 0.0 - - - - - - -
29/04:30pm 20.6 E 11 15 1019.2 - 0.0 - - - - - - -
29/04:00pm 21.1 E 11 15 1019.2 - 0.0 - - - - - - -
29/03:30pm 21.7 E 12 15 1019.1 - 0.0 - - - - - - -
29/03:00pm 22.3 ENE 11 15 1019.0 - 0.0 - - - - - - -
29/02:30pm 22.9 ENE 10 16 1019.1 - 0.0 - - - - - - -
29/02:00pm 22.9 ENE 11 16 1019.1 - 0.0 - - - - - - -
29/01:30pm 23.1 E 11 18 1019.5 - 0.0 - - - - - - -
29/01:00pm 23.1 E 11 17 1020.0 - 0.0 - - - - - - -
29/12:30pm 22.8 ESE 13 19 1020.3 - 0.0 - - - - - - -
29/12:00pm 22.5 ESE 11 17 1021.0 - 0.0 - - - - - - -
29/11:30am 22.3 ESE 11 17 1021.4 - 0.0 - - - - - - -
29/11:00am 21.5 SE 9 13 1022.0 - 0.0 - - - - - - -
29/10:30am 21.8 SE 8 14 1022.5 - 0.0 - - - - - - -
29/10:00am 20.8 SE 9 16 1022.7 - 0.0 - - - - - - -
29/09:30am 19.7 SSE 11 18 1022.8 - 0.0 - - - - - - -
29/09:00am 17.8 S 6 10 1022.7 - 0.0 - - - - - - -
29/08:30am 16.8 SSW 6 10 1022.6 - 0.0 - - - - - - -
29/08:00am 16.0 SSW 7 11 1022.4 - 0.0 - - - - - - -
29/07:30am 15.5 SSW 8 11 1022.2 - 0.0 - - - - - - -
29/07:00am 14.7 SSW 8 11 1022.0 - 0.0 - - - - - - -
29/06:30am 13.6 SW 7 9 1021.5 - 0.0 - - - - - - -
29/06:00am 14.2 SSW 7 10 1021.3 - 0.0 - - - - - - -
29/05:30am 14.4 SSW 8 10 1021.1 - 0.0 - - - - - - -
29/05:00am 14.4 SSW 8 12 1020.9 - 0.0 - - - - - - -
29/04:30am 14.2 SW 8 10 1020.7 - 0.0 - - - - - - -
29/04:00am 13.9 SW 8 11 1020.6 - 0.0 - - - - - - -
29/03:30am 15.2 SSW 9 11 1020.6 - 0.0 - - - - - - -
29/03:00am 15.6 SSW 9 12 1020.7 - 0.0 - - - - - - -
29/02:30am 15.8 S 9 12 1021.0 - 0.0 - - - - - - -
29/02:00am 15.9 S 9 11 1021.2 - 0.0 - - - - - - -
29/01:30am 15.9 S 9 12 1021.5 - 0.0 - - - - - - -
29/01:00am 16.2 S 9 11 1021.8 - 0.0 - - - - - - -
29/12:30am 16.6 S 8 11 1021.8 - 0.0 - - - - - - -
29/12:00am 17.1 SSE 8 11 1022.0 - 0.0 - - - - - - -
 
Date/Time
EST
Temp
°C
Wind Pressure Rain since
9am
mm
Weather Cloud Vis
km
Sea
Height
m
Swell
Dir  Spd
kts
Gust
kts
hPa Trend Height
m
Period
s
Dir
28/11:30pm 17.3 SSE 8 11 1022.1 - 0.0 - - - - - - -
28/11:00pm 17.3 SSE 9 11 1022.3 - 0.0 - - - - - - -
28/10:30pm 17.3 SSE 8 11 1022.6 - 0.0 - - - - - - -
28/10:00pm 17.3 SSE 7 10 1022.8 - 0.0 - - - - - - -
28/09:30pm 17.0 SSE 8 11 1022.9 - 0.0 - - - - - - -
28/09:00pm 16.7 SSE 8 10 1022.7 - 0.0 - - - - - - -
28/08:30pm 17.1 SSE 8 10 1022.7 - 0.0 - - - - - - -
28/08:00pm 17.3 SSE 9 11 1022.5 - 0.0 - - - - - - -
28/07:30pm 17.6 SSE 8 11 1022.4 - 0.0 - - - - - - -
28/07:00pm 18.1 SE 10 14 1022.2 - 0.0 - - - - - - -
28/06:30pm 17.9 SE 9 13 1021.8 - 0.0 - - - - - - -
28/06:00pm 17.7 ESE 6 10 1021.6 - 0.0 - - - - - - -
28/05:30pm 17.8 E 8 11 1021.3 - 0.0 - - - - - - -
28/05:00pm 18.4 E 9 12 1021.1 - 0.0 - - - - - - -
28/04:30pm 19.3 ENE 10 13 1020.8 - 0.0 - - - - - - -
28/04:00pm 19.8 ENE 9 13 1020.5 - 0.0 - - - - - - -
28/03:30pm 20.8 ENE 8 12 1020.4 - 0.0 - - - - - - -

Other Formats:

Comma delimited format used in spreadsheet applications
http://www.bom.gov.au/fwo/IDQ60701/IDQ60701.94380.axf

JavaScript Object Notation format (JSON) in row-major order
http://www.bom.gov.au/fwo/IDQ60701/IDQ60701.94380.json